sensor_id;sensor_type;location;lat;lon;timestamp;temperature;humidity
18948;DHT22;9607;51.600;7.558;2023-02-28T00:00:10;-0.50;99.90
18948;DHT22;9607;51.600;7.558;2023-02-28T00:02:37;-0.50;99.90
18948;DHT22;9607;51.600;7.558;2023-02-28T00:05:05;-0.60;99.90
18948;DHT22;9607;51.600;7.558;2023-02-28T00:07:32;-0.60;99.90
18948;DHT22;9607;51.600;7.558;2023-02-28T00:09:59;-0.60;99.90
18948;DHT22;9607;51.600;7.558;2023-02-28T00:12:26;-0.60;99.90
18948;DHT22;9607;51.600;7.558;2023-02-28T00:14:55;-0.70;99.90
18948;DHT22;9607;51.600;7.558;2023-02-28T00:17:21;-0.70;99.90
18948;DHT22;9607;51.600;7.558;2023-02-28T00:19:49;-0.70;99.90
18948;DHT22;9607;51.600;7.558;2023-02-28T00:22:17;-0.80;99.90
18948;DHT22;9607;51.600;7.558;2023-02-28T00:24:44;-0.80;99.90
18948;DHT22;9607;51.600;7.558;2023-02-28T00:27:11;-0.80;99.90
18948;DHT22;9607;51.600;7.558;2023-02-28T00:29:38;-0.90;99.90
18948;DHT22;9607;51.600;7.558;2023-02-28T00:32:06;-0.90;99.90
18948;DHT22;9607;51.600;7.558;2023-02-28T00:34:33;-0.90;99.90
18948;DHT22;9607;51.600;7.558;2023-02-28T00:37:04;-1.00;99.90
18948;DHT22;9607;51.600;7.558;2023-02-28T00:39:32;-1.10;99.90
18948;DHT22;9607;51.600;7.558;2023-02-28T00:41:59;-1.10;99.90
18948;DHT22;9607;51.600;7.558;2023-02-28T00:44:26;-1.20;99.90
18948;DHT22;9607;51.600;7.558;2023-02-28T00:46:53;-1.20;99.90
18948;DHT22;9607;51.600;7.558;2023-02-28T00:49:22;-1.20;99.90
18948;DHT22;9607;51.600;7.558;2023-02-28T00:51:49;-1.30;99.90
18948;DHT22;9607;51.600;7.558;2023-02-28T00:54:16;-1.40;99.90
18948;DHT22;9607;51.600;7.558;2023-02-28T00:56:43;-1.40;99.90
18948;DHT22;9607;51.600;7.558;2023-02-28T00:59:11;-1.40;99.90
18948;DHT22;9607;51.600;7.558;2023-02-28T01:01:38;-1.40;99.90
18948;DHT22;9607;51.600;7.558;2023-02-28T01:04:05;-1.40;99.90
18948;DHT22;9607;51.600;7.558;2023-02-28T01:06:33;-1.50;99.90
18948;DHT22;9607;51.600;7.558;2023-02-28T01:09:00;-1.50;99.90
18948;DHT22;9607;51.600;7.558;2023-02-28T01:11:27;-1.50;99.90
18948;DHT22;9607;51.600;7.558;2023-02-28T01:13:54;-1.60;99.90
18948;DHT22;9607;51.600;7.558;2023-02-28T01:16:21;-1.60;99.90
18948;DHT22;9607;51.600;7.558;2023-02-28T01:18:48;-1.60;99.90
18948;DHT22;9607;51.600;7.558;2023-02-28T01:21:18;-1.60;99.90
18948;DHT22;9607;51.600;7.558;2023-02-28T01:23:48;-1.70;99.90
18948;DHT22;9607;51.600;7.558;2023-02-28T01:26:16;-1.70;99.90
18948;DHT22;9607;51.600;7.558;2023-02-28T01:28:44;-1.70;99.90
18948;DHT22;9607;51.600;7.558;2023-02-28T01:31:11;-1.80;99.90
18948;DHT22;9607;51.600;7.558;2023-02-28T01:33:38;-1.70;99.90
18948;DHT22;9607;51.600;7.558;2023-02-28T01:36:08;-1.80;99.90
18948;DHT22;9607;51.600;7.558;2023-02-28T01:38:36;-1.80;99.90
18948;DHT22;9607;51.600;7.558;2023-02-28T01:41:04;-1.80;99.90
18948;DHT22;9607;51.600;7.558;2023-02-28T01:43:39;-1.80;99.90
18948;DHT22;9607;51.600;7.558;2023-02-28T01:46:18;-1.90;99.90
18948;DHT22;9607;51.600;7.558;2023-02-28T01:48:46;-1.90;99.90
18948;DHT22;9607;51.600;7.558;2023-02-28T01:51:18;-1.90;99.90
18948;DHT22;9607;51.600;7.558;2023-02-28T01:53:50;-1.90;99.90
18948;DHT22;9607;51.600;7.558;2023-02-28T01:56:22;-2.00;99.90
18948;DHT22;9607;51.600;7.558;2023-02-28T01:58:50;-2.00;99.90
18948;DHT22;9607;51.600;7.558;2023-02-28T02:01:18;-2.00;99.90
18948;DHT22;9607;51.600;7.558;2023-02-28T02:03:47;-2.10;99.90
18948;DHT22;9607;51.600;7.558;2023-02-28T02:06:21;-2.10;99.90
18948;DHT22;9607;51.600;7.558;2023-02-28T02:08:47;-2.10;99.90
18948;DHT22;9607;51.600;7.558;2023-02-28T02:11:19;-2.20;99.90
18948;DHT22;9607;51.600;7.558;2023-02-28T02:16:55;-2.20;99.90
18948;DHT22;9607;51.600;7.558;2023-02-28T02:19:53;-2.30;99.90
18948;DHT22;9607;51.600;7.558;2023-02-28T02:22:46;-2.30;99.90
18948;DHT22;9607;51.600;7.558;2023-02-28T02:25:26;-2.40;99.90
18948;DHT22;9607;51.600;7.558;2023-02-28T02:28:19;-2.40;99.90
18948;DHT22;9607;51.600;7.558;2023-02-28T02:37:11;-2.40;99.90
18948;DHT22;9607;51.600;7.558;2023-02-28T02:39:47;-2.40;99.90
18948;DHT22;9607;51.600;7.558;2023-02-28T02:42:19;-2.40;99.90
18948;DHT22;9607;51.600;7.558;2023-02-28T02:44:51;-2.50;99.90
18948;DHT22;9607;51.600;7.558;2023-02-28T02:47:23;-2.50;99.90
18948;DHT22;9607;51.600;7.558;2023-02-28T02:49:54;-2.50;99.90
18948;DHT22;9607;51.600;7.558;2023-02-28T02:52:24;-2.60;99.90
18948;DHT22;9607;51.600;7.558;2023-02-28T02:54:52;-2.60;99.90
18948;DHT22;9607;51.600;7.558;2023-02-28T02:57:25;-2.60;99.90
18948;DHT22;9607;51.600;7.558;2023-02-28T02:59:55;-2.60;99.90
18948;DHT22;9607;51.600;7.558;2023-02-28T03:02:23;-2.70;99.90
18948;DHT22;9607;51.600;7.558;2023-02-28T03:04:56;-2.70;99.90
18948;DHT22;9607;51.600;7.558;2023-02-28T03:07:26;-2.70;99.90
18948;DHT22;9607;51.600;7.558;2023-02-28T03:09:54;-2.70;99.90
18948;DHT22;9607;51.600;7.558;2023-02-28T03:12:24;-2.70;99.90
18948;DHT22;9607;51.600;7.558;2023-02-28T03:15:08;-2.70;99.90
18948;DHT22;9607;51.600;7.558;2023-02-28T03:17:51;-2.70;99.90
18948;DHT22;9607;51.600;7.558;2023-02-28T03:20:31;-2.80;99.90
18948;DHT22;9607;51.600;7.558;2023-02-28T03:23:10;-2.80;99.90
18948;DHT22;9607;51.600;7.558;2023-02-28T03:25:48;-2.80;99.90
18948;DHT22;9607;51.600;7.558;2023-02-28T03:28:22;-2.80;99.90
18948;DHT22;9607;51.600;7.558;2023-02-28T03:30:53;-2.80;99.90
18948;DHT22;9607;51.600;7.558;2023-02-28T03:33:24;-2.80;99.90
18948;DHT22;9607;51.600;7.558;2023-02-28T03:35:57;-2.80;99.90
18948;DHT22;9607;51.600;7.558;2023-02-28T03:38:29;-2.80;99.90
18948;DHT22;9607;51.600;7.558;2023-02-28T03:41:00;-2.90;99.90
18948;DHT22;9607;51.600;7.558;2023-02-28T03:43:32;-2.90;99.90
18948;DHT22;9607;51.600;7.558;2023-02-28T03:46:04;-2.90;99.90
18948;DHT22;9607;51.600;7.558;2023-02-28T03:48:38;-3.00;99.90
18948;DHT22;9607;51.600;7.558;2023-02-28T03:51:12;-3.00;99.90
18948;DHT22;9607;51.600;7.558;2023-02-28T03:53:44;-3.10;99.90
18948;DHT22;9607;51.600;7.558;2023-02-28T03:56:16;-3.10;99.90
18948;DHT22;9607;51.600;7.558;2023-02-28T03:58:49;-3.20;99.90
18948;DHT22;9607;51.600;7.558;2023-02-28T04:01:21;-3.20;99.90
18948;DHT22;9607;51.600;7.558;2023-02-28T04:03:50;-3.20;99.90
18948;DHT22;9607;51.600;7.558;2023-02-28T04:06:21;-3.20;99.90
18948;DHT22;9607;51.600;7.558;2023-02-28T04:08:49;-3.20;99.90
18948;DHT22;9607;51.600;7.558;2023-02-28T04:11:20;-3.20;99.90
18948;DHT22;9607;51.600;7.558;2023-02-28T04:13:47;-3.20;99.90
18948;DHT22;9607;51.600;7.558;2023-02-28T04:16:15;-3.20;99.90
18948;DHT22;9607;51.600;7.558;2023-02-28T04:18:42;-3.20;99.90
18948;DHT22;9607;51.600;7.558;2023-02-28T04:21:10;-3.20;99.90
18948;DHT22;9607;51.600;7.558;2023-02-28T04:23:38;-3.30;99.90
18948;DHT22;9607;51.600;7.558;2023-02-28T04:26:06;-3.30;99.90
18948;DHT22;9607;51.600;7.558;2023-02-28T04:28:33;-3.30;99.90
18948;DHT22;9607;51.600;7.558;2023-02-28T04:31:02;-3.30;99.90
18948;DHT22;9607;51.600;7.558;2023-02-28T04:33:31;-3.40;99.90
18948;DHT22;9607;51.600;7.558;2023-02-28T04:35:59;-3.40;99.90
18948;DHT22;9607;51.600;7.558;2023-02-28T04:38:26;-3.40;99.90
18948;DHT22;9607;51.600;7.558;2023-02-28T04:40:57;-3.40;99.90
18948;DHT22;9607;51.600;7.558;2023-02-28T04:43:23;-3.40;99.90
18948;DHT22;9607;51.600;7.558;2023-02-28T04:45:50;-3.30;99.90
18948;DHT22;9607;51.600;7.558;2023-02-28T04:48:17;-3.30;99.90
18948;DHT22;9607;51.600;7.558;2023-02-28T04:50:44;-3.30;99.90
18948;DHT22;9607;51.600;7.558;2023-02-28T04:53:11;-3.30;99.90
18948;DHT22;9607;51.600;7.558;2023-02-28T04:55:38;-3.40;99.90
18948;DHT22;9607;51.600;7.558;2023-02-28T04:58:08;-3.40;99.90
18948;DHT22;9607;51.600;7.558;2023-02-28T05:00:35;-3.50;99.90
18948;DHT22;9607;51.600;7.558;2023-02-28T05:03:02;-3.50;99.90
18948;DHT22;9607;51.600;7.558;2023-02-28T05:05:28;-3.50;99.90
18948;DHT22;9607;51.600;7.558;2023-02-28T05:07:55;-3.50;99.90
18948;DHT22;9607;51.600;7.558;2023-02-28T05:10:22;-3.40;99.90
18948;DHT22;9607;51.600;7.558;2023-02-28T05:12:50;-3.50;99.90
18948;DHT22;9607;51.600;7.558;2023-02-28T05:15:18;-3.50;99.90
18948;DHT22;9607;51.600;7.558;2023-02-28T05:17:45;-3.60;99.90
18948;DHT22;9607;51.600;7.558;2023-02-28T05:20:12;-3.60;99.90
18948;DHT22;9607;51.600;7.558;2023-02-28T05:22:40;-3.70;99.90
18948;DHT22;9607;51.600;7.558;2023-02-28T05:25:09;-3.70;99.90
18948;DHT22;9607;51.600;7.558;2023-02-28T05:27:37;-3.70;99.90
18948;DHT22;9607;51.600;7.558;2023-02-28T05:30:06;-3.80;99.90
18948;DHT22;9607;51.600;7.558;2023-02-28T05:32:37;-3.80;99.90
18948;DHT22;9607;51.600;7.558;2023-02-28T05:35:04;-3.70;99.90
18948;DHT22;9607;51.600;7.558;2023-02-28T05:37:31;-3.70;99.90
18948;DHT22;9607;51.600;7.558;2023-02-28T05:39:58;-3.60;99.90
18948;DHT22;9607;51.600;7.558;2023-02-28T05:42:25;-3.60;99.90
18948;DHT22;9607;51.600;7.558;2023-02-28T05:44:52;-3.70;99.90
18948;DHT22;9607;51.600;7.558;2023-02-28T05:47:18;-3.60;99.90
18948;DHT22;9607;51.600;7.558;2023-02-28T05:49:47;-3.70;99.90
18948;DHT22;9607;51.600;7.558;2023-02-28T05:52:14;-3.70;99.90
18948;DHT22;9607;51.600;7.558;2023-02-28T05:54:41;-3.70;99.90
18948;DHT22;9607;51.600;7.558;2023-02-28T05:57:07;-3.70;99.90
18948;DHT22;9607;51.600;7.558;2023-02-28T05:59:35;-3.70;99.90
18948;DHT22;9607;51.600;7.558;2023-02-28T06:02:05;-3.80;99.90
18948;DHT22;9607;51.600;7.558;2023-02-28T06:04:32;-3.80;99.90
18948;DHT22;9607;51.600;7.558;2023-02-28T06:07:01;-3.90;99.90
18948;DHT22;9607;51.600;7.558;2023-02-28T06:09:29;-3.90;99.90
18948;DHT22;9607;51.600;7.558;2023-02-28T06:11:57;-4.00;99.90
18948;DHT22;9607;51.600;7.558;2023-02-28T06:14:24;-3.90;99.90
18948;DHT22;9607;51.600;7.558;2023-02-28T06:16:51;-3.90;99.90
18948;DHT22;9607;51.600;7.558;2023-02-28T06:19:18;-3.90;99.90
18948;DHT22;9607;51.600;7.558;2023-02-28T06:21:48;-3.80;99.90
18948;DHT22;9607;51.600;7.558;2023-02-28T06:24:17;-3.80;99.90
18948;DHT22;9607;51.600;7.558;2023-02-28T06:26:44;-3.70;99.90
18948;DHT22;9607;51.600;7.558;2023-02-28T06:29:11;-3.70;99.90
18948;DHT22;9607;51.600;7.558;2023-02-28T06:31:42;-3.70;99.90
18948;DHT22;9607;51.600;7.558;2023-02-28T06:34:11;-3.70;99.90
18948;DHT22;9607;51.600;7.558;2023-02-28T06:36:39;-3.70;99.90
18948;DHT22;9607;51.600;7.558;2023-02-28T06:39:09;-3.70;99.90
18948;DHT22;9607;51.600;7.558;2023-02-28T06:41:38;-3.70;99.90
18948;DHT22;9607;51.600;7.558;2023-02-28T06:44:08;-3.60;99.90
18948;DHT22;9607;51.600;7.558;2023-02-28T06:46:39;-3.60;99.90
18948;DHT22;9607;51.600;7.558;2023-02-28T06:49:06;-3.60;99.90
18948;DHT22;9607;51.600;7.558;2023-02-28T06:51:34;-3.60;99.90
18948;DHT22;9607;51.600;7.558;2023-02-28T06:54:01;-3.50;99.90
18948;DHT22;9607;51.600;7.558;2023-02-28T06:56:28;-3.50;99.90
18948;DHT22;9607;51.600;7.558;2023-02-28T06:58:56;-3.50;99.90
18948;DHT22;9607;51.600;7.558;2023-02-28T07:01:23;-3.40;99.90
18948;DHT22;9607;51.600;7.558;2023-02-28T07:03:51;-3.40;99.90
18948;DHT22;9607;51.600;7.558;2023-02-28T07:06:18;-3.40;99.90
18948;DHT22;9607;51.600;7.558;2023-02-28T07:08:45;-3.30;99.90
18948;DHT22;9607;51.600;7.558;2023-02-28T07:11:12;-3.30;99.90
18948;DHT22;9607;51.600;7.558;2023-02-28T07:13:38;-3.30;99.90
18948;DHT22;9607;51.600;7.558;2023-02-28T07:16:10;-3.30;99.90
18948;DHT22;9607;51.600;7.558;2023-02-28T07:18:37;-3.30;99.90
18948;DHT22;9607;51.600;7.558;2023-02-28T07:21:05;-3.20;99.90
18948;DHT22;9607;51.600;7.558;2023-02-28T07:23:33;-3.20;99.90
18948;DHT22;9607;51.600;7.558;2023-02-28T07:26:00;-3.20;99.90
18948;DHT22;9607;51.600;7.558;2023-02-28T07:28:27;-3.20;99.90
18948;DHT22;9607;51.600;7.558;2023-02-28T07:30:54;-3.20;99.90
18948;DHT22;9607;51.600;7.558;2023-02-28T07:33:22;-3.20;99.90
18948;DHT22;9607;51.600;7.558;2023-02-28T07:35:50;-3.20;99.90
18948;DHT22;9607;51.600;7.558;2023-02-28T07:38:19;-3.10;99.90
18948;DHT22;9607;51.600;7.558;2023-02-28T07:40:45;-3.10;99.90
18948;DHT22;9607;51.600;7.558;2023-02-28T07:43:12;-3.00;99.90
18948;DHT22;9607;51.600;7.558;2023-02-28T07:45:39;-2.90;99.90
18948;DHT22;9607;51.600;7.558;2023-02-28T07:48:06;-2.80;99.90
18948;DHT22;9607;51.600;7.558;2023-02-28T07:50:36;-2.70;99.90
18948;DHT22;9607;51.600;7.558;2023-02-28T07:53:03;-2.50;99.90
18948;DHT22;9607;51.600;7.558;2023-02-28T07:55:30;-2.40;99.90
18948;DHT22;9607;51.600;7.558;2023-02-28T07:57:57;-2.40;99.90
18948;DHT22;9607;51.600;7.558;2023-02-28T08:00:24;-2.30;99.90
18948;DHT22;9607;51.600;7.558;2023-02-28T08:02:51;-2.20;99.90
18948;DHT22;9607;51.600;7.558;2023-02-28T08:05:18;-2.10;99.90
18948;DHT22;9607;51.600;7.558;2023-02-28T08:07:46;-2.00;99.90
18948;DHT22;9607;51.600;7.558;2023-02-28T08:10:13;-1.90;99.90
18948;DHT22;9607;51.600;7.558;2023-02-28T08:12:39;-1.80;99.90
18948;DHT22;9607;51.600;7.558;2023-02-28T08:15:07;-1.70;99.90
18948;DHT22;9607;51.600;7.558;2023-02-28T08:17:34;-1.50;99.90
18948;DHT22;9607;51.600;7.558;2023-02-28T08:20:01;-1.40;99.90
18948;DHT22;9607;51.600;7.558;2023-02-28T08:22:29;-1.30;99.90
18948;DHT22;9607;51.600;7.558;2023-02-28T08:24:57;-1.20;99.90
18948;DHT22;9607;51.600;7.558;2023-02-28T08:27:24;-1.00;99.90
18948;DHT22;9607;51.600;7.558;2023-02-28T08:29:51;-0.90;99.90
18948;DHT22;9607;51.600;7.558;2023-02-28T08:32:19;-0.80;99.90
18948;DHT22;9607;51.600;7.558;2023-02-28T08:34:46;-0.70;99.90
18948;DHT22;9607;51.600;7.558;2023-02-28T08:37:16;-0.60;99.90
18948;DHT22;9607;51.600;7.558;2023-02-28T08:39:42;-0.50;99.90
18948;DHT22;9607;51.600;7.558;2023-02-28T08:42:11;-0.30;99.90
18948;DHT22;9607;51.600;7.558;2023-02-28T08:44:40;-0.20;99.90
18948;DHT22;9607;51.600;7.558;2023-02-28T08:47:07;-0.10;99.90
18948;DHT22;9607;51.600;7.558;2023-02-28T08:49:34;0.10;99.90
18948;DHT22;9607;51.600;7.558;2023-02-28T08:52:01;0.30;99.90
18948;DHT22;9607;51.600;7.558;2023-02-28T08:54:28;0.50;99.90
18948;DHT22;9607;51.600;7.558;2023-02-28T08:56:56;0.60;99.90
18948;DHT22;9607;51.600;7.558;2023-02-28T08:59:25;0.70;99.90
18948;DHT22;9607;51.600;7.558;2023-02-28T09:01:51;0.80;99.90
18948;DHT22;9607;51.600;7.558;2023-02-28T09:04:18;0.90;99.90
18948;DHT22;9607;51.600;7.558;2023-02-28T09:06:45;1.00;99.90
18948;DHT22;9607;51.600;7.558;2023-02-28T09:09:14;1.10;99.90
18948;DHT22;9607;51.600;7.558;2023-02-28T09:11:42;1.20;99.90
18948;DHT22;9607;51.600;7.558;2023-02-28T09:14:09;1.30;99.90
18948;DHT22;9607;51.600;7.558;2023-02-28T09:16:37;1.40;99.90
18948;DHT22;9607;51.600;7.558;2023-02-28T09:19:04;1.50;99.90
18948;DHT22;9607;51.600;7.558;2023-02-28T09:21:31;1.70;99.90
18948;DHT22;9607;51.600;7.558;2023-02-28T09:23:58;1.80;99.90
18948;DHT22;9607;51.600;7.558;2023-02-28T09:26:26;1.90;99.90
18948;DHT22;9607;51.600;7.558;2023-02-28T09:28:53;2.00;99.90
18948;DHT22;9607;51.600;7.558;2023-02-28T09:31:22;2.10;99.90
18948;DHT22;9607;51.600;7.558;2023-02-28T09:33:52;2.20;99.90
18948;DHT22;9607;51.600;7.558;2023-02-28T09:36:19;2.20;99.90
18948;DHT22;9607;51.600;7.558;2023-02-28T09:38:46;2.40;99.90
18948;DHT22;9607;51.600;7.558;2023-02-28T09:41:16;2.40;99.90
18948;DHT22;9607;51.600;7.558;2023-02-28T09:43:46;2.50;99.90
18948;DHT22;9607;51.600;7.558;2023-02-28T09:46:32;2.60;99.90
18948;DHT22;9607;51.600;7.558;2023-02-28T09:49:07;2.70;99.90
18948;DHT22;9607;51.600;7.558;2023-02-28T09:51:45;2.70;99.90
18948;DHT22;9607;51.600;7.558;2023-02-28T09:54:15;2.80;99.90
18948;DHT22;9607;51.600;7.558;2023-02-28T09:56:45;2.90;99.90
18948;DHT22;9607;51.600;7.558;2023-02-28T09:59:17;3.00;99.90
18948;DHT22;9607;51.600;7.558;2023-02-28T10:01:52;3.10;99.90
18948;DHT22;9607;51.600;7.558;2023-02-28T10:04:36;3.10;99.90
18948;DHT22;9607;51.600;7.558;2023-02-28T10:07:15;3.20;99.90
18948;DHT22;9607;51.600;7.558;2023-02-28T10:09:45;3.20;99.90
18948;DHT22;9607;51.600;7.558;2023-02-28T10:12:15;3.30;99.90
18948;DHT22;9607;51.600;7.558;2023-02-28T10:14:45;3.40;99.90
18948;DHT22;9607;51.600;7.558;2023-02-28T10:17:17;3.60;99.90
18948;DHT22;9607;51.600;7.558;2023-02-28T10:19:56;3.80;99.90
18948;DHT22;9607;51.600;7.558;2023-02-28T10:22:29;4.00;99.90
18948;DHT22;9607;51.600;7.558;2023-02-28T10:24:58;4.10;99.90
18948;DHT22;9607;51.600;7.558;2023-02-28T10:27:30;4.20;99.90
18948;DHT22;9607;51.600;7.558;2023-02-28T10:29:59;4.30;99.90
18948;DHT22;9607;51.600;7.558;2023-02-28T10:32:29;4.30;99.90
18948;DHT22;9607;51.600;7.558;2023-02-28T10:35:00;4.40;99.90
18948;DHT22;9607;51.600;7.558;2023-02-28T10:37:28;4.40;99.90
18948;DHT22;9607;51.600;7.558;2023-02-28T10:39:55;4.40;99.90
18948;DHT22;9607;51.600;7.558;2023-02-28T10:42:23;4.50;99.90
18948;DHT22;9607;51.600;7.558;2023-02-28T10:45:10;4.50;99.90
18948;DHT22;9607;51.600;7.558;2023-02-28T10:47:48;4.60;99.30
18948;DHT22;9607;51.600;7.558;2023-02-28T10:50:35;4.60;98.40
18948;DHT22;9607;51.600;7.558;2023-02-28T10:53:10;4.70;97.40
18948;DHT22;9607;51.600;7.558;2023-02-28T10:55:41;4.70;97.30
18948;DHT22;9607;51.600;7.558;2023-02-28T10:58:21;4.90;97.90
18948;DHT22;9607;51.600;7.558;2023-02-28T11:00:48;5.00;98.40
18948;DHT22;9607;51.600;7.558;2023-02-28T11:03:24;5.10;98.50
18948;DHT22;9607;51.600;7.558;2023-02-28T11:05:53;5.20;98.60
18948;DHT22;9607;51.600;7.558;2023-02-28T11:08:20;5.30;98.10
18948;DHT22;9607;51.600;7.558;2023-02-28T11:10:48;5.50;97.40
18948;DHT22;9607;51.600;7.558;2023-02-28T11:13:21;5.60;96.90
18948;DHT22;9607;51.600;7.558;2023-02-28T11:15:53;5.80;95.00
18948;DHT22;9607;51.600;7.558;2023-02-28T11:18:24;5.90;94.20
18948;DHT22;9607;51.600;7.558;2023-02-28T11:20:54;5.90;93.50
18948;DHT22;9607;51.600;7.558;2023-02-28T11:23:24;5.90;92.00
18948;DHT22;9607;51.600;7.558;2023-02-28T11:25:54;5.90;91.90
18948;DHT22;9607;51.600;7.558;2023-02-28T11:28:28;5.80;91.90
18948;DHT22;9607;51.600;7.558;2023-02-28T11:31:01;5.80;91.80
18948;DHT22;9607;51.600;7.558;2023-02-28T11:33:30;5.70;91.80
18948;DHT22;9607;51.600;7.558;2023-02-28T11:36:02;5.60;91.90
18948;DHT22;9607;51.600;7.558;2023-02-28T11:38:32;5.60;92.50
18948;DHT22;9607;51.600;7.558;2023-02-28T11:41:19;5.60;93.60
18948;DHT22;9607;51.600;7.558;2023-02-28T11:44:10;5.60;94.40
18948;DHT22;9607;51.600;7.558;2023-02-28T11:46:44;5.80;94.80
18948;DHT22;9607;51.600;7.558;2023-02-28T11:49:32;6.00;94.60
18948;DHT22;9607;51.600;7.558;2023-02-28T11:52:06;6.40;94.20
18948;DHT22;9607;51.600;7.558;2023-02-28T11:54:59;6.70;93.20
18948;DHT22;9607;51.600;7.558;2023-02-28T11:57:51;7.00;93.30
18948;DHT22;9607;51.600;7.558;2023-02-28T12:00:33;7.20;92.60
18948;DHT22;9607;51.600;7.558;2023-02-28T12:03:11;7.30;91.90
18948;DHT22;9607;51.600;7.558;2023-02-28T12:05:45;7.30;91.40
18948;DHT22;9607;51.600;7.558;2023-02-28T12:08:23;7.30;90.80
18948;DHT22;9607;51.600;7.558;2023-02-28T12:11:01;7.30;89.60
18948;DHT22;9607;51.600;7.558;2023-02-28T12:13:43;7.30;90.10
18948;DHT22;9607;51.600;7.558;2023-02-28T12:16:36;7.30;89.90
18948;DHT22;9607;51.600;7.558;2023-02-28T12:19:19;7.40;89.50
18948;DHT22;9607;51.600;7.558;2023-02-28T12:21:59;7.50;90.40
18948;DHT22;9607;51.600;7.558;2023-02-28T12:24:57;7.70;89.50
18948;DHT22;9607;51.600;7.558;2023-02-28T12:27:31;7.80;87.40
18948;DHT22;9607;51.600;7.558;2023-02-28T12:30:02;7.80;86.90
18948;DHT22;9607;51.600;7.558;2023-02-28T12:32:35;7.90;87.80
18948;DHT22;9607;51.600;7.558;2023-02-28T12:35:10;8.40;89.20
18948;DHT22;9607;51.600;7.558;2023-02-28T12:37:40;8.80;86.70
18948;DHT22;9607;51.600;7.558;2023-02-28T12:40:13;9.40;85.40
18948;DHT22;9607;51.600;7.558;2023-02-28T12:42:44;10.10;82.10
18948;DHT22;9607;51.600;7.558;2023-02-28T12:45:17;10.40;78.00
18948;DHT22;9607;51.600;7.558;2023-02-28T12:47:48;10.70;76.10
18948;DHT22;9607;51.600;7.558;2023-02-28T12:50:18;10.80;74.60
18948;DHT22;9607;51.600;7.558;2023-02-28T12:52:52;10.70;72.50
18948;DHT22;9607;51.600;7.558;2023-02-28T12:55:27;10.70;71.10
18948;DHT22;9607;51.600;7.558;2023-02-28T12:58:06;10.90;69.90
18948;DHT22;9607;51.600;7.558;2023-02-28T13:00:37;11.20;67.60
18948;DHT22;9607;51.600;7.558;2023-02-28T13:03:32;12.00;68.30
18948;DHT22;9607;51.600;7.558;2023-02-28T13:06:20;12.90;65.70
18948;DHT22;9607;51.600;7.558;2023-02-28T13:09:05;13.50;62.50
18948;DHT22;9607;51.600;7.558;2023-02-28T13:11:41;13.50;58.90
18948;DHT22;9607;51.600;7.558;2023-02-28T13:14:28;13.10;58.80
18948;DHT22;9607;51.600;7.558;2023-02-28T13:17:10;12.50;59.50
18948;DHT22;9607;51.600;7.558;2023-02-28T13:19:39;12.50;59.70
18948;DHT22;9607;51.600;7.558;2023-02-28T13:22:17;12.50;59.80
18948;DHT22;9607;51.600;7.558;2023-02-28T13:24:48;12.40;60.20
18948;DHT22;9607;51.600;7.558;2023-02-28T13:27:34;12.50;61.70
18948;DHT22;9607;51.600;7.558;2023-02-28T13:30:02;12.60;62.10
18948;DHT22;9607;51.600;7.558;2023-02-28T13:33:26;13.00;60.10
18948;DHT22;9607;51.600;7.558;2023-02-28T13:36:10;13.70;59.00
18948;DHT22;9607;51.600;7.558;2023-02-28T13:38:49;13.90;56.60
18948;DHT22;9607;51.600;7.558;2023-02-28T13:41:43;13.40;56.40
18948;DHT22;9607;51.600;7.558;2023-02-28T13:44:11;13.20;57.50
18948;DHT22;9607;51.600;7.558;2023-02-28T13:49:40;13.20;56.70
18948;DHT22;9607;51.600;7.558;2023-02-28T13:52:14;12.70;55.90
18948;DHT22;9607;51.600;7.558;2023-02-28T13:55:11;12.40;56.50
18948;DHT22;9607;51.600;7.558;2023-02-28T13:57:53;12.10;57.40
18948;DHT22;9607;51.600;7.558;2023-02-28T14:00:31;12.00;58.30
18948;DHT22;9607;51.600;7.558;2023-02-28T14:03:18;11.90;58.80
18948;DHT22;9607;51.600;7.558;2023-02-28T14:06:16;12.00;59.80
18948;DHT22;9607;51.600;7.558;2023-02-28T14:08:52;12.40;59.90
18948;DHT22;9607;51.600;7.558;2023-02-28T14:11:29;12.70;58.00
18948;DHT22;9607;51.600;7.558;2023-02-28T14:13:57;12.70;57.80
18948;DHT22;9607;51.600;7.558;2023-02-28T14:16:24;12.50;58.40
18948;DHT22;9607;51.600;7.558;2023-02-28T14:18:58;12.50;58.80
18948;DHT22;9607;51.600;7.558;2023-02-28T14:21:29;12.50;58.90
18948;DHT22;9607;51.600;7.558;2023-02-28T14:24:29;12.50;58.20
18948;DHT22;9607;51.600;7.558;2023-02-28T14:27:30;12.50;57.40
18948;DHT22;9607;51.600;7.558;2023-02-28T14:33:20;12.40;57.40
18948;DHT22;9607;51.600;7.558;2023-02-28T14:36:03;12.50;58.00
18948;DHT22;9607;51.600;7.558;2023-02-28T14:38:36;12.60;58.30
18948;DHT22;9607;51.600;7.558;2023-02-28T14:41:24;12.60;57.70
18948;DHT22;9607;51.600;7.558;2023-02-28T14:43:57;12.50;57.70
18948;DHT22;9607;51.600;7.558;2023-02-28T14:46:28;12.50;58.30
18948;DHT22;9607;51.600;7.558;2023-02-28T14:48:56;12.70;58.40
18948;DHT22;9607;51.600;7.558;2023-02-28T14:51:24;12.70;58.80
18948;DHT22;9607;51.600;7.558;2023-02-28T14:53:59;12.70;58.30
18948;DHT22;9607;51.600;7.558;2023-02-28T14:56:29;12.70;57.10
18948;DHT22;9607;51.600;7.558;2023-02-28T14:58:57;12.70;57.00
18948;DHT22;9607;51.600;7.558;2023-02-28T15:01:25;12.70;56.60
18948;DHT22;9607;51.600;7.558;2023-02-28T15:04:00;12.60;56.40
18948;DHT22;9607;51.600;7.558;2023-02-28T15:06:28;12.70;56.90
18948;DHT22;9607;51.600;7.558;2023-02-28T15:09:13;13.00;57.50
18948;DHT22;9607;51.600;7.558;2023-02-28T15:11:41;13.30;56.40
18948;DHT22;9607;51.600;7.558;2023-02-28T15:14:16;13.60;56.10
18948;DHT22;9607;51.600;7.558;2023-02-28T15:16:47;13.80;54.30
18948;DHT22;9607;51.600;7.558;2023-02-28T15:19:21;14.00;53.70
18948;DHT22;9607;51.600;7.558;2023-02-28T15:21:55;14.20;54.50
18948;DHT22;9607;51.600;7.558;2023-02-28T15:24:31;14.60;54.30
18948;DHT22;9607;51.600;7.558;2023-02-28T15:27:04;14.80;53.10
18948;DHT22;9607;51.600;7.558;2023-02-28T15:29:37;15.30;52.00
18948;DHT22;9607;51.600;7.558;2023-02-28T15:32:23;15.60;51.00
18948;DHT22;9607;51.600;7.558;2023-02-28T15:34:50;15.80;49.90
18948;DHT22;9607;51.600;7.558;2023-02-28T15:37:29;16.00;49.00
18948;DHT22;9607;51.600;7.558;2023-02-28T15:40:07;16.10;48.60
18948;DHT22;9607;51.600;7.558;2023-02-28T15:42:34;16.10;48.30
18948;DHT22;9607;51.600;7.558;2023-02-28T15:45:01;16.50;48.50
18948;DHT22;9607;51.600;7.558;2023-02-28T15:47:29;16.80;48.10
18948;DHT22;9607;51.600;7.558;2023-02-28T15:50:10;17.30;47.60
18948;DHT22;9607;51.600;7.558;2023-02-28T15:52:43;17.80;46.30
18948;DHT22;9607;51.600;7.558;2023-02-28T15:55:18;18.30;45.00
18948;DHT22;9607;51.600;7.558;2023-02-28T15:57:46;18.60;44.30
18948;DHT22;9607;51.600;7.558;2023-02-28T16:00:18;18.70;43.70
18948;DHT22;9607;51.600;7.558;2023-02-28T16:02:47;18.60;43.30
18948;DHT22;9607;51.600;7.558;2023-02-28T16:05:20;18.30;43.30
18948;DHT22;9607;51.600;7.558;2023-02-28T16:07:53;18.20;43.60
18948;DHT22;9607;51.600;7.558;2023-02-28T16:10:22;18.20;43.70
18948;DHT22;9607;51.600;7.558;2023-02-28T16:12:53;18.30;42.80
18948;DHT22;9607;51.600;7.558;2023-02-28T16:15:22;18.50;43.20
18948;DHT22;9607;51.600;7.558;2023-02-28T16:17:50;18.70;43.00
18948;DHT22;9607;51.600;7.558;2023-02-28T16:20:19;18.90;42.30
18948;DHT22;9607;51.600;7.558;2023-02-28T16:22:46;18.90;41.50
18948;DHT22;9607;51.600;7.558;2023-02-28T16:25:13;19.00;41.50
18948;DHT22;9607;51.600;7.558;2023-02-28T16:27:42;19.00;40.70
18948;DHT22;9607;51.600;7.558;2023-02-28T16:30:19;18.90;41.10
18948;DHT22;9607;51.600;7.558;2023-02-28T16:32:47;18.80;41.20